Time;durP1;ratioP1;P1;durP2;ratioP2;P2;SDS_P1;SDS_P2;PMS_P1;PMS_P2;Temp;Humidity;BMP_temperature;BMP_pressure;BME280_temperature;BME280_humidity;BME280_pressure;Samples;Min_cycle;Max_cycle;Signal;HPM_P1;HPM_P2
2022/02/16 00:01:54;;;;;;;4.63;2.75;;;;;;;;;;5047468;28;20045;-59
2022/02/16 00:04:20;;;;;;;4.80;2.78;;;;;;;;;;5026793;28;20083;-58
2022/02/16 00:06:47;;;;;;;5.45;3.03;;;;;;;;;;5038821;28;20057;-59
2022/02/16 00:09:14;;;;;;;7.10;3.10;;;;;;;;;;5047744;28;20153;-60
2022/02/16 00:11:41;;;;;;;4.55;2.78;;;;;;;;;;5041597;28;20057;-59
2022/02/16 00:14:09;;;;;;;4.28;2.65;;;;;;;;;;5047965;28;20049;-61
2022/02/16 00:16:36;;;;;;;4.07;2.50;;;;;;;;;;5041569;28;20139;-58
2022/02/16 00:19:04;;;;;;;4.95;2.70;;;;;;;;;;5048189;28;20060;-59
2022/02/16 00:21:32;;;;;;;5.43;2.83;;;;;;;;;;5041953;28;20056;-59
2022/02/16 00:23:59;;;;;;;7.82;2.75;;;;;;;;;;5047320;28;20122;-59
2022/02/16 00:26:25;;;;;;;6.75;3.10;;;;;;;;;;5041803;28;20057;-58
2022/02/16 00:28:53;;;;;;;5.20;2.85;;;;;;;;;;5047869;28;20083;-59
2022/02/16 00:31:21;;;;;;;4.78;2.80;;;;;;;;;;5041244;28;20044;-61
2022/02/16 00:33:48;;;;;;;5.13;2.73;;;;;;;;;;5047680;28;20076;-59
2022/02/16 00:36:14;;;;;;;5.55;3.08;;;;;;;;;;5032842;28;20131;-58
2022/02/16 00:38:43;;;;;;;6.22;2.72;;;;;;;;;;5047504;28;20049;-59
2022/02/16 00:41:10;;;;;;;8.15;2.75;;;;;;;;;;5037935;28;20120;-59
2022/02/16 00:43:36;;;;;;;5.55;2.80;;;;;;;;;;5031208;28;20053;-59
2022/02/16 00:46:03;;;;;;;5.90;2.88;;;;;;;;;;5041688;28;20053;-58
2022/02/16 00:48:32;;;;;;;5.35;2.70;;;;;;;;;;5049048;28;20052;-60
2022/02/16 00:50:59;;;;;;;7.40;2.53;;;;;;;;;;5048993;28;20072;-61
2022/02/16 00:53:25;;;;;;;6.78;3.45;;;;;;;;;;5042159;28;20110;-61
2022/02/16 00:55:52;;;;;;;6.47;3.45;;;;;;;;;;5048749;28;20056;-60
2022/02/16 00:58:20;;;;;;;7.22;3.58;;;;;;;;;;5041722;28;20080;-61
2022/02/16 01:00:47;;;;;;;8.80;3.67;;;;;;;;;;5047340;28;20079;-61
2022/02/16 01:03:14;;;;;;;6.82;3.03;;;;;;;;;;5041001;28;20115;-62
2022/02/16 01:05:42;;;;;;;5.55;2.92;;;;;;;;;;5047087;28;20084;-60
2022/02/16 01:08:09;;;;;;;6.38;3.25;;;;;;;;;;5039457;28;20139;-59
2022/02/16 01:10:35;;;;;;;7.28;3.78;;;;;;;;;;5047204;28;20049;-61
2022/02/16 01:13:02;;;;;;;4.15;2.30;;;;;;;;;;5041434;28;20103;-61
2022/02/16 01:15:28;;;;;;;7.63;3.45;;;;;;;;;;5046915;28;20049;-60
2022/02/16 01:17:55;;;;;;;5.63;2.80;;;;;;;;;;5040136;28;20029;-60
2022/02/16 01:20:22;;;;;;;4.55;2.55;;;;;;;;;;5046780;28;20045;-61
2022/02/16 01:22:50;;;;;;;6.78;3.17;;;;;;;;;;5040672;28;20094;-61
2022/02/16 01:25:17;;;;;;;5.18;3.00;;;;;;;;;;5046290;28;20053;-61
2022/02/16 01:27:44;;;;;;;5.10;2.78;;;;;;;;;;5040316;28;20045;-61
2022/02/16 01:30:12;;;;;;;3.42;2.17;;;;;;;;;;5046372;28;20134;-62
2022/02/16 01:32:39;;;;;;;;;;;;;;;;;;5046552;28;20148;-61
2022/02/16 01:35:06;;;;;;;3.17;1.95;;;;;;;;;;5040570;28;19929;-59
2022/02/16 01:37:32;;;;;;;5.00;2.15;;;;;;;;;;5046380;28;20144;-59
2022/02/16 01:40:01;;;;;;;4.57;2.40;;;;;;;;;;5040212;28;20148;-59
2022/02/16 01:42:27;;;;;;;5.00;2.40;;;;;;;;;;5045878;28;20053;-58
2022/02/16 01:44:54;;;;;;;5.55;2.53;;;;;;;;;;5040012;28;20107;-60
2022/02/16 01:47:20;;;;;;;6.65;2.90;;;;;;;;;;5046447;28;20060;-59
2022/02/16 01:49:47;;;;;;;5.55;2.97;;;;;;;;;;5040391;28;20077;-58
2022/02/16 01:52:15;;;;;;;5.30;2.95;;;;;;;;;;5063546;28;20056;-60
2022/02/16 01:54:42;;;;;;;5.70;3.00;;;;;;;;;;5031751;28;20053;-58
2022/02/16 01:57:10;;;;;;;7.07;3.10;;;;;;;;;;5025808;28;20057;-58
2022/02/16 01:59:37;;;;;;;7.45;3.60;;;;;;;;;;5027301;28;20064;-60
2022/02/16 02:02:06;;;;;;;8.05;3.42;;;;;;;;;;5046214;28;20069;-58
2022/02/16 02:04:33;;;;;;;7.97;3.60;;;;;;;;;;5040657;28;20055;-59
2022/02/16 02:07:00;;;;;;;10.18;3.03;;;;;;;;;;5045952;28;20175;-59
2022/02/16 02:09:27;;;;;;;6.22;3.00;;;;;;;;;;5040563;28;20064;-59
2022/02/16 02:11:53;;;;;;;8.90;3.60;;;;;;;;;;5045815;28;20140;-59
2022/02/16 02:14:21;;;;;;;6.30;3.45;;;;;;;;;;5044545;28;20076;-60
2022/02/16 02:16:48;;;;;;;7.72;2.95;;;;;;;;;;5044609;28;20080;-60
2022/02/16 02:19:16;;;;;;;5.63;3.22;;;;;;;;;;5046714;28;20151;-59
2022/02/16 02:21:46;;;;;;;8.63;3.03;;;;;;;;;;5040243;28;20480;-62
2022/02/16 02:24:12;;;;;;;7.15;3.33;;;;;;;;;;5047373;28;20307;-61
2022/02/16 02:26:39;;;;;;;6.45;2.63;;;;;;;;;;5040887;28;20079;-62
2022/02/16 02:29:05;;;;;;;6.50;2.72;;;;;;;;;;5044402;28;20052;-59
2022/02/16 02:31:33;;;;;;;6.07;2.70;;;;;;;;;;5039845;28;20056;-60
2022/02/16 02:34:00;;;;;;;6.60;3.25;;;;;;;;;;5045882;28;20110;-60
2022/02/16 02:36:26;;;;;;;6.72;3.53;;;;;;;;;;5043290;28;20056;-60
2022/02/16 02:38:56;;;;;;;6.53;2.75;;;;;;;;;;5050325;28;20049;-61
2022/02/16 02:41:24;;;;;;;8.05;3.78;;;;;;;;;;5044107;28;20045;-60
2022/02/16 02:43:50;;;;;;;7.33;3.30;;;;;;;;;;5049473;28;20148;-60
2022/02/16 02:46:17;;;;;;;6.05;3.05;;;;;;;;;;5043161;28;20101;-61
2022/02/16 02:48:44;;;;;;;10.18;3.25;;;;;;;;;;5049364;28;20120;-60
2022/02/16 02:51:12;;;;;;;6.15;2.55;;;;;;;;;;5044028;28;20121;-60
2022/02/16 02:53:38;;;;;;;4.80;2.42;;;;;;;;;;5049078;28;20072;-60
2022/02/16 02:56:06;;;;;;;5.20;3.05;;;;;;;;;;5052807;28;20102;-60
2022/02/16 02:58:33;;;;;;;6.32;2.47;;;;;;;;;;5035556;28;20140;-58
2022/02/16 03:00:59;;;;;;;6.75;2.90;;;;;;;;;;5026746;28;20057;-59
2022/02/16 03:03:26;;;;;;;5.72;2.75;;;;;;;;;;5023353;28;20056;-60
2022/02/16 03:05:52;;;;;;;5.57;2.80;;;;;;;;;;5030846;28;20102;-61
2022/02/16 03:08:21;;;;;;;5.43;2.53;;;;;;;;;;5026841;28;20053;-60
2022/02/16 03:10:48;;;;;;;4.65;2.70;;;;;;;;;;5032796;28;20053;-59
2022/02/16 03:13:22;;;;;;;4.72;2.47;;;;;;;;;;5025935;28;20144;-61
2022/02/16 03:15:49;;;;;;;5.65;2.45;;;;;;;;;;5032620;28;20079;-59
2022/02/16 03:18:17;;;;;;;5.80;2.75;;;;;;;;;;5026950;28;20064;-61
2022/02/16 03:20:43;;;;;;;5.00;2.58;;;;;;;;;;5032384;28;20072;-58
2022/02/16 03:23:10;;;;;;;4.65;2.40;;;;;;;;;;5028174;28;20117;-60
2022/02/16 03:25:37;;;;;;;4.82;2.22;;;;;;;;;;5032355;28;20061;-60
2022/02/16 03:28:03;;;;;;;5.53;2.70;;;;;;;;;;5025887;28;20047;-61
2022/02/16 03:30:31;;;;;;;4.28;2.35;;;;;;;;;;5031696;28;20049;-60
2022/02/16 03:32:58;;;;;;;5.30;2.47;;;;;;;;;;5026342;28;20052;-61
2022/02/16 03:35:25;;;;;;;5.03;2.38;;;;;;;;;;5031506;28;20064;-58
2022/02/16 03:37:51;;;;;;;7.93;2.80;;;;;;;;;;5044889;28;20053;-61
2022/02/16 03:40:18;;;;;;;4.45;2.30;;;;;;;;;;5048896;28;20081;-61
2022/02/16 03:42:44;;;;;;;7.32;2.85;;;;;;;;;;5048712;28;20171;-60
2022/02/16 03:45:11;;;;;;;5.05;2.40;;;;;;;;;;5028280;28;20053;-61
2022/02/16 03:47:39;;;;;;;3.55;1.92;;;;;;;;;;5032000;28;20086;-62
2022/02/16 03:50:06;;;;;;;5.20;2.40;;;;;;;;;;5044354;28;20052;-61
2022/02/16 03:52:33;;;;;;;5.72;2.00;;;;;;;;;;5032519;28;20049;-61
2022/02/16 03:54:59;;;;;;;5.88;2.38;;;;;;;;;;5043896;28;20080;-61
2022/02/16 03:57:26;;;;;;;4.10;2.00;;;;;;;;;;5050730;28;20135;-61
2022/02/16 03:59:52;;;;;;;3.67;2.00;;;;;;;;;;5054740;28;20086;-60
2022/02/16 04:02:19;;;;;;;5.07;1.92;;;;;;;;;;5071472;28;20083;-58
2022/02/16 04:04:47;;;;;;;4.05;2.00;;;;;;;;;;5065069;28;20076;-60
2022/02/16 04:07:13;;;;;;;5.30;1.60;;;;;;;;;;5071785;28;20040;-61
2022/02/16 04:09:42;;;;;;;3.45;1.85;;;;;;;;;;5059293;28;20306;-58
2022/02/16 04:12:08;;;;;;;4.30;1.80;;;;;;;;;;5051236;28;20155;-60
2022/02/16 04:14:35;;;;;;;5.65;1.80;;;;;;;;;;5045745;28;20071;-60
2022/02/16 04:17:01;;;;;;;4.03;1.92;;;;;;;;;;5053431;28;20052;-60
2022/02/16 04:19:28;;;;;;;2.90;1.80;;;;;;;;;;5065297;28;20056;-60
2022/02/16 04:21:56;;;;;;;2.13;1.25;;;;;;;;;;5071186;28;20048;-60
2022/02/16 04:24:22;;;;;;;4.63;1.70;;;;;;;;;;5070225;28;20157;-58
2022/02/16 04:26:50;;;;;;;2.72;1.60;;;;;;;;;;5047489;28;20048;-59
2022/02/16 04:29:17;;;;;;;2.13;1.10;;;;;;;;;;5052761;28;20056;-58
2022/02/16 04:31:43;;;;;;;4.65;1.77;;;;;;;;;;5065338;28;20151;-61
2022/02/16 04:34:10;;;;;;;3.03;1.45;;;;;;;;;;5071454;28;20068;-61
2022/02/16 04:36:37;;;;;;;3.00;1.35;;;;;;;;;;5064059;28;20055;-59
2022/02/16 04:39:06;;;;;;;2.65;1.45;;;;;;;;;;5070845;28;20048;-59
2022/02/16 04:41:33;;;;;;;4.65;1.50;;;;;;;;;;5052442;28;20144;-61
2022/02/16 04:43:59;;;;;;;2.55;1.40;;;;;;;;;;5051101;28;20060;-60
2022/02/16 04:46:26;;;;;;;2.40;1.20;;;;;;;;;;5045260;28;20333;-60
2022/02/16 04:48:52;;;;;;;2.65;1.30;;;;;;;;;;5050837;28;20052;-60
2022/02/16 04:51:19;;;;;;;2.33;1.38;;;;;;;;;;5061715;28;20056;-62
2022/02/16 04:53:45;;;;;;;3.55;0.90;;;;;;;;;;5051053;28;20080;-61
2022/02/16 04:56:14;;;;;;;2.28;1.40;;;;;;;;;;5045339;28;20048;-60
2022/02/16 04:58:43;;;;;;;2.20;1.38;;;;;;;;;;5047430;28;20064;-59
2022/02/16 05:01:09;;;;;;;;;;;;;;;;;;5023305;28;20123;-60
2022/02/16 05:03:35;;;;;;;2.42;1.20;;;;;;;;;;5047070;28;19934;-59
2022/02/16 05:06:02;;;;;;;2.78;1.45;;;;;;;;;;5026186;28;20138;-59
2022/02/16 05:08:32;;;;;;;1.90;1.13;;;;;;;;;;5045808;28;20107;-60
2022/02/16 05:10:58;;;;;;;3.30;1.40;;;;;;;;;;5030057;28;20114;-57
2022/02/16 05:13:26;;;;;;;2.42;1.20;;;;;;;;;;5024352;28;20191;-60
2022/02/16 05:15:52;;;;;;;2.37;1.30;;;;;;;;;;5040727;28;20059;-61
2022/02/16 05:18:19;;;;;;;2.53;1.30;;;;;;;;;;5060325;28;20052;-61
2022/02/16 05:20:45;;;;;;;3.58;1.40;;;;;;;;;;5070830;28;20151;-61
2022/02/16 05:23:12;;;;;;;3.22;1.40;;;;;;;;;;5051710;28;20121;-61
2022/02/16 05:25:38;;;;;;;2.33;1.30;;;;;;;;;;5050480;28;20101;-62
2022/02/16 05:28:07;;;;;;;2.78;1.48;;;;;;;;;;5045564;28;20110;-61
2022/02/16 05:30:35;;;;;;;2.47;1.40;;;;;;;;;;5065164;28;20089;-61
2022/02/16 05:33:02;;;;;;;2.97;1.40;;;;;;;;;;5057219;28;20044;-57
2022/02/16 05:35:28;;;;;;;3.95;1.55;;;;;;;;;;5050066;28;20075;-59
2022/02/16 05:37:55;;;;;;;3.42;1.60;;;;;;;;;;5044106;28;20140;-60
2022/02/16 05:40:21;;;;;;;3.60;1.50;;;;;;;;;;5051055;28;20053;-59
2022/02/16 05:42:48;;;;;;;2.50;1.38;;;;;;;;;;5046116;28;20140;-59
2022/02/16 05:45:15;;;;;;;3.65;1.25;;;;;;;;;;5069422;28;20059;-61
2022/02/16 05:47:43;;;;;;;4.65;2.08;;;;;;;;;;5064725;28;20048;-59
2022/02/16 05:50:10;;;;;;;4.38;1.30;;;;;;;;;;5069573;28;20044;-60
2022/02/16 05:52:37;;;;;;;5.10;2.30;;;;;;;;;;5069528;28;20086;-61
2022/02/16 05:55:04;;;;;;;3.97;1.88;;;;;;;;;;5045181;28;20112;-60
2022/02/16 05:57:32;;;;;;;2.15;1.17;;;;;;;;;;5046248;28;20090;-61
2022/02/16 05:59:59;;;;;;;2.13;1.27;;;;;;;;;;5041836;28;20061;-59
2022/02/16 06:02:25;;;;;;;2.75;1.30;;;;;;;;;;5048414;28;20080;-58
2022/02/16 06:04:53;;;;;;;1.77;1.10;;;;;;;;;;5043939;28;20057;-60
2022/02/16 06:07:20;;;;;;;2.03;1.10;;;;;;;;;;5048276;28;20121;-60
2022/02/16 06:09:47;;;;;;;2.05;1.05;;;;;;;;;;5039415;28;20063;-59
2022/02/16 06:12:14;;;;;;;1.45;1.00;;;;;;;;;;5048098;28;20121;-58
2022/02/16 06:14:40;;;;;;;2.65;1.33;;;;;;;;;;5042264;28;20072;-60
2022/02/16 06:17:07;;;;;;;3.63;1.77;;;;;;;;;;5047951;28;20139;-60
2022/02/16 06:19:33;;;;;;;2.60;1.20;;;;;;;;;;5043204;28;20093;-58
2022/02/16 06:22:01;;;;;;;2.05;1.23;;;;;;;;;;5048506;28;20139;-58
2022/02/16 06:24:28;;;;;;;2.47;1.13;;;;;;;;;;5042109;28;20064;-58
2022/02/16 06:26:55;;;;;;;2.00;1.10;;;;;;;;;;5049267;28;20044;-58
2022/02/16 06:29:21;;;;;;;1.65;0.95;;;;;;;;;;5043166;28;20080;-58
2022/02/16 06:31:48;;;;;;;1.67;1.00;;;;;;;;;;5048403;28;20052;-58
2022/02/16 06:34:14;;;;;;;2.13;1.38;;;;;;;;;;5058279;28;20053;-59
2022/02/16 06:36:41;;;;;;;3.70;1.17;;;;;;;;;;5043050;28;20071;-60
2022/02/16 06:39:09;;;;;;;5.45;2.00;;;;;;;;;;5048572;28;20095;-62
2022/02/16 06:41:35;;;;;;;2.77;1.20;;;;;;;;;;5056184;28;20052;-62
2022/02/16 06:44:02;;;;;;;1.75;1.00;;;;;;;;;;5053201;28;20329;-59
2022/02/16 06:46:29;;;;;;;3.72;1.20;;;;;;;;;;5046723;28;20076;-60
2022/02/16 06:48:55;;;;;;;2.20;1.15;;;;;;;;;;5050662;28;20056;-59
2022/02/16 06:51:22;;;;;;;3.95;1.20;;;;;;;;;;5048301;28;20044;-58
2022/02/16 06:53:55;;;;;;;1.38;1.00;;;;;;;;;;5052731;28;20048;-60
2022/02/16 06:56:24;;;;;;;2.85;1.10;;;;;;;;;;5046638;28;20060;-59
2022/02/16 06:58:57;;;;;;;;;;;;;;;;;;5054193;28;20052;-60
2022/02/16 07:01:23;;;;;;;2.55;1.40;;;;;;;;;;5054723;28;19931;-60
2022/02/16 07:03:50;;;;;;;1.90;1.20;;;;;;;;;;5071360;28;20049;-62
2022/02/16 07:06:16;;;;;;;1.02;0.70;;;;;;;;;;5062647;28;20052;-61
2022/02/16 07:08:43;;;;;;;1.35;0.95;;;;;;;;;;5055944;28;20087;-59
2022/02/16 07:11:09;;;;;;;1.52;1.00;;;;;;;;;;5044171;28;20111;-60
2022/02/16 07:13:37;;;;;;;1.65;1.00;;;;;;;;;;5049405;28;20049;-61
2022/02/16 07:16:04;;;;;;;2.03;1.13;;;;;;;;;;5080271;28;20060;-60
2022/02/16 07:18:33;;;;;;;3.05;1.05;;;;;;;;;;5066244;28;20299;-58
2022/02/16 07:21:00;;;;;;;2.83;1.10;;;;;;;;;;5069454;28;20052;-58
2022/02/16 07:23:28;;;;;;;1.65;1.02;;;;;;;;;;5045719;28;20045;-62
2022/02/16 07:25:55;;;;;;;1.95;1.10;;;;;;;;;;5055926;28;20053;-61
2022/02/16 07:28:22;;;;;;;1.55;1.00;;;;;;;;;;5062648;28;20060;-61
2022/02/16 07:30:50;;;;;;;3.47;1.30;;;;;;;;;;5068875;28;20134;-60
2022/02/16 07:33:19;;;;;;;2.75;1.40;;;;;;;;;;5062843;28;20061;-62
2022/02/16 07:35:45;;;;;;;5.18;1.35;;;;;;;;;;5068438;28;20109;-61
2022/02/16 07:38:15;;;;;;;5.65;1.65;;;;;;;;;;5062693;28;20058;-60
2022/02/16 07:40:42;;;;;;;1.83;1.25;;;;;;;;;;5068443;28;20134;-61
2022/02/16 07:43:08;;;;;;;2.17;1.35;;;;;;;;;;5062456;28;20068;-60
2022/02/16 07:45:35;;;;;;;2.08;1.23;;;;;;;;;;5068841;28;20049;-60
2022/02/16 07:48:03;;;;;;;2.28;1.38;;;;;;;;;;5061977;28;20060;-60
2022/02/16 07:50:30;;;;;;;2.13;1.17;;;;;;;;;;5068310;28;20044;-61
2022/02/16 07:52:58;;;;;;;3.80;1.40;;;;;;;;;;5062160;28;20056;-61
2022/02/16 07:55:26;;;;;;;1.48;1.08;;;;;;;;;;5068542;28;20057;-59
2022/02/16 07:57:53;;;;;;;1.95;1.20;;;;;;;;;;5062661;28;20052;-59
2022/02/16 08:00:20;;;;;;;1.48;1.00;;;;;;;;;;5069372;28;20067;-61
2022/02/16 08:02:47;;;;;;;1.92;1.15;;;;;;;;;;5067940;28;20127;-60
2022/02/16 08:05:14;;;;;;;1.98;1.10;;;;;;;;;;5062536;28;20139;-59
2022/02/16 08:07:41;;;;;;;1.80;1.20;;;;;;;;;;5067967;28;20048;-60
2022/02/16 08:10:08;;;;;;;1.27;0.82;;;;;;;;;;5062223;28;20059;-60
2022/02/16 08:12:43;;;;;;;2.03;1.10;;;;;;;;;;5068588;28;20049;-61
2022/02/16 08:15:09;;;;;;;2.78;1.40;;;;;;;;;;5062109;28;20106;-61
2022/02/16 08:17:38;;;;;;;1.48;1.13;;;;;;;;;;5068532;28;20122;-61
2022/02/16 08:20:07;;;;;;;2.10;1.48;;;;;;;;;;5061944;28;20071;-60
2022/02/16 08:22:35;;;;;;;2.80;1.40;;;;;;;;;;5067779;28;20053;-59
2022/02/16 08:25:02;;;;;;;1.98;1.30;;;;;;;;;;5062127;28;20056;-60
2022/02/16 08:27:29;;;;;;;2.15;1.10;;;;;;;;;;5067801;28;20049;-59
2022/02/16 08:29:55;;;;;;;2.75;1.52;;;;;;;;;;5062584;28;20048;-60
2022/02/16 08:32:22;;;;;;;2.60;1.67;;;;;;;;;;5069792;28;20114;-60
2022/02/16 08:34:48;;;;;;;5.65;2.35;;;;;;;;;;5063704;28;20074;-58
2022/02/16 08:37:15;;;;;;;2.72;1.60;;;;;;;;;;5068560;28;20052;-59
2022/02/16 08:39:43;;;;;;;2.28;1.42;;;;;;;;;;5061660;28;20048;-58
2022/02/16 08:42:09;;;;;;;2.95;1.60;;;;;;;;;;5067530;28;20053;-59
2022/02/16 08:44:36;;;;;;;2.42;1.33;;;;;;;;;;5062863;28;20056;-57
2022/02/16 08:47:03;;;;;;;2.17;1.50;;;;;;;;;;5047218;28;20059;-58
2022/02/16 08:49:30;;;;;;;3.70;1.70;;;;;;;;;;5047437;28;20053;-58
2022/02/16 08:51:56;;;;;;;2.08;1.20;;;;;;;;;;5042191;28;20044;-60
2022/02/16 08:54:24;;;;;;;3.55;1.60;;;;;;;;;;5046678;28;20057;-60
2022/02/16 08:56:52;;;;;;;2.58;1.30;;;;;;;;;;5056834;28;20055;-59
2022/02/16 08:59:19;;;;;;;2.87;1.43;;;;;;;;;;5067204;28;20131;-61
2022/02/16 09:01:46;;;;;;;2.25;1.23;;;;;;;;;;5064169;28;20110;-60
2022/02/16 09:04:12;;;;;;;2.10;1.02;;;;;;;;;;5066479;28;20060;-58
2022/02/16 09:07:27;;;;;;;2.25;1.17;;;;;;;;;;5060202;28;20101;-60
2022/02/16 09:09:26;;;;;;;2.85;1.13;;;;;;;;;;5065270;28;20060;-59
2022/02/16 09:11:54;;;;;;;4.65;1.45;;;;;;;;;;5060337;28;20072;-58
2022/02/16 09:14:21;;;;;;;4.07;1.60;;;;;;;;;;5062857;28;20061;-58
2022/02/16 09:16:47;;;;;;;2.97;1.40;;;;;;;;;;5057444;28;20060;-61
2022/02/16 09:19:15;;;;;;;2.97;1.30;;;;;;;;;;5046606;28;20057;-60
2022/02/16 09:21:42;;;;;;;2.28;1.33;;;;;;;;;;5046213;28;20282;-60
2022/02/16 09:24:08;;;;;;;6.10;1.70;;;;;;;;;;5066227;28;20076;-60
2022/02/16 09:26:35;;;;;;;5.43;1.73;;;;;;;;;;5060450;28;20048;-60
2022/02/16 09:29:03;;;;;;;6.18;1.80;;;;;;;;;;5066726;28;20052;-60
2022/02/16 09:31:30;;;;;;;3.08;1.60;;;;;;;;;;5024186;28;20045;-60
2022/02/16 09:33:56;;;;;;;4.28;1.85;;;;;;;;;;5067401;28;20091;-59
2022/02/16 09:36:23;;;;;;;4.55;1.75;;;;;;;;;;5066170;28;20064;-58
2022/02/16 09:38:50;;;;;;;4.82;1.90;;;;;;;;;;5041869;28;20057;-59
2022/02/16 09:41:17;;;;;;;7.63;2.50;;;;;;;;;;5046337;28;20072;-60
2022/02/16 09:43:45;;;;;;;6.40;2.00;;;;;;;;;;5056824;28;20106;-61
2022/02/16 09:46:13;;;;;;;5.30;2.20;;;;;;;;;;5066275;28;20052;-61
2022/02/16 09:48:41;;;;;;;6.00;1.83;;;;;;;;;;5046272;28;20061;-61
2022/02/16 09:51:07;;;;;;;8.57;2.25;;;;;;;;;;5054327;28;20060;-59
2022/02/16 09:53:34;;;;;;;6.25;2.17;;;;;;;;;;5060482;28;20080;-61
2022/02/16 09:56:00;;;;;;;8.98;2.00;;;;;;;;;;5066177;28;20068;-61
2022/02/16 09:58:27;;;;;;;6.10;2.45;;;;;;;;;;5060859;28;20045;-61
2022/02/16 10:01:01;;;;;;;7.53;1.80;;;;;;;;;;5067115;28;20121;-59
2022/02/16 10:03:29;;;;;;;6.65;1.92;;;;;;;;;;5060670;28;20124;-58
2022/02/16 10:05:55;;;;;;;7.10;1.80;;;;;;;;;;5068335;28;20055;-60
2022/02/16 10:08:38;;;;;;;6.93;2.42;;;;;;;;;;5062676;28;20083;-62
2022/02/16 10:11:04;;;;;;;10.55;2.10;;;;;;;;;;5067586;28;20143;-61
2022/02/16 10:13:34;;;;;;;8.20;2.58;;;;;;;;;;5060706;28;20191;-58
2022/02/16 10:16:01;;;;;;;8.50;2.05;;;;;;;;;;5068978;28;20053;-58
2022/02/16 10:18:29;;;;;;;4.88;1.33;;;;;;;;;;5065000;28;20067;-58
2022/02/16 10:21:05;;;;;;;11.40;2.10;;;;;;;;;;5070401;28;20084;-59
2022/02/16 10:23:40;;;;;;;7.53;1.40;;;;;;;;;;5064113;28;20045;-58
2022/02/16 10:26:06;;;;;;;6.30;1.50;;;;;;;;;;5069707;28;20153;-60
2022/02/16 10:28:39;;;;;;;5.80;1.45;;;;;;;;;;5069030;28;20113;-59
2022/02/16 10:31:07;;;;;;;9.18;1.48;;;;;;;;;;5066673;28;20052;-59
2022/02/16 10:33:35;;;;;;;6.82;1.15;;;;;;;;;;5070089;28;20059;-58
2022/02/16 10:36:03;;;;;;;10.70;1.25;;;;;;;;;;5063273;28;20236;-58
2022/02/16 10:38:31;;;;;;;7.53;1.20;;;;;;;;;;5069681;28;20044;-58
2022/02/16 10:41:02;;;;;;;9.90;1.23;;;;;;;;;;5042048;28;20139;-58
2022/02/16 10:43:32;;;;;;;6.57;0.82;;;;;;;;;;5049377;28;20045;-59
2022/02/16 10:45:59;;;;;;;4.72;1.08;;;;;;;;;;5043387;28;20053;-58
2022/02/16 10:48:26;;;;;;;6.30;1.10;;;;;;;;;;5049509;28;20053;-59
2022/02/16 10:50:54;;;;;;;10.80;1.33;;;;;;;;;;5043902;28;20072;-58
2022/02/16 10:53:25;;;;;;;5.32;1.08;;;;;;;;;;5049457;28;20057;-58
2022/02/16 10:55:54;;;;;;;5.78;0.82;;;;;;;;;;5043349;28;20072;-59
2022/02/16 10:58:21;;;;;;;3.75;0.70;;;;;;;;;;5049462;28;20080;-58
2022/02/16 11:00:49;;;;;;;11.70;1.40;;;;;;;;;;5031229;28;20135;-58
2022/02/16 11:03:19;;;;;;;7.85;1.60;;;;;;;;;;5068346;28;20088;-58
2022/02/16 11:05:46;;;;;;;7.63;1.17;;;;;;;;;;5071265;28;20059;-58
2022/02/16 11:08:16;;;;;;;5.28;1.00;;;;;;;;;;5070005;28;20140;-58
2022/02/16 11:10:45;;;;;;;11.15;1.02;;;;;;;;;;5063498;28;20052;-57
2022/02/16 11:13:12;;;;;;;8.07;1.40;;;;;;;;;;5068971;28;20061;-59
2022/02/16 11:15:40;;;;;;;9.90;1.90;;;;;;;;;;5063267;28;20055;-58
2022/02/16 11:18:13;;;;;;;12.02;1.80;;;;;;;;;;5069040;28;20052;-58
2022/02/16 11:20:40;;;;;;;5.93;1.40;;;;;;;;;;5064831;28;20060;-60
2022/02/16 11:23:06;;;;;;;7.68;1.80;;;;;;;;;;5069118;28;20064;-60
2022/02/16 11:25:35;;;;;;;13.77;1.85;;;;;;;;;;5068828;28;20056;-58
2022/02/16 11:28:05;;;;;;;7.95;1.40;;;;;;;;;;5062785;28;20063;-57
2022/02/16 11:30:33;;;;;;;7.82;1.58;;;;;;;;;;5068887;28;20044;-58
2022/02/16 11:33:13;;;;;;;4.53;1.60;;;;;;;;;;5063542;28;20128;-60
2022/02/16 11:35:46;;;;;;;8.60;1.60;;;;;;;;;;5068827;28;20086;-59
2022/02/16 11:38:15;;;;;;;6.03;1.60;;;;;;;;;;5064074;28;20049;-60
2022/02/16 11:40:44;;;;;;;4.28;1.30;;;;;;;;;;5070835;28;20048;-61
2022/02/16 11:43:11;;;;;;;9.35;1.63;;;;;;;;;;5064900;28;20136;-60
2022/02/16 11:45:57;;;;;;;8.32;1.23;;;;;;;;;;5068969;28;20136;-59
2022/02/16 11:48:28;;;;;;;11.55;1.70;;;;;;;;;;5062362;28;20048;-58
2022/02/16 11:50:54;;;;;;;10.85;1.50;;;;;;;;;;5068095;28;20098;-58
2022/02/16 11:53:28;;;;;;;9.40;1.40;;;;;;;;;;5051104;28;20207;-59
2022/02/16 11:56:15;;;;;;;10.88;1.73;;;;;;;;;;5047784;28;20057;-60
2022/02/16 11:58:42;;;;;;;10.10;1.65;;;;;;;;;;5057596;28;20064;-58
2022/02/16 12:01:15;;;;;;;7.78;1.70;;;;;;;;;;5069080;28;20178;-58
2022/02/16 12:03:50;;;;;;;6.85;1.48;;;;;;;;;;5062827;28;20128;-58
2022/02/16 12:06:21;;;;;;;9.60;2.00;;;;;;;;;;5067961;28;20045;-59
2022/02/16 12:09:04;;;;;;;11.30;2.10;;;;;;;;;;5062906;28;20052;-58
2022/02/16 12:11:32;;;;;;;4.57;1.55;;;;;;;;;;5065681;28;20142;-58
2022/02/16 12:14:01;;;;;;;15.40;2.20;;;;;;;;;;5062212;28;20110;-58
2022/02/16 12:16:29;;;;;;;11.38;2.00;;;;;;;;;;5067597;28;20063;-57
2022/02/16 12:19:00;;;;;;;17.65;2.88;;;;;;;;;;5062074;28;20148;-58
2022/02/16 12:21:27;;;;;;;5.07;1.60;;;;;;;;;;5067970;28;20057;-58
2022/02/16 12:23:57;;;;;;;15.13;2.00;;;;;;;;;;5062079;28;20048;-59
2022/02/16 12:26:24;;;;;;;8.82;2.00;;;;;;;;;;5065097;28;20079;-60
2022/02/16 12:28:56;;;;;;;20.05;2.90;;;;;;;;;;5061458;28;20055;-59
2022/02/16 12:31:24;;;;;;;13.95;1.60;;;;;;;;;;5067932;28;20052;-61
2022/02/16 12:34:11;;;;;;;6.57;1.77;;;;;;;;;;5062065;28;20044;-59
2022/02/16 12:36:39;;;;;;;12.13;2.42;;;;;;;;;;5067240;28;20158;-60
2022/02/16 12:39:07;;;;;;;14.20;1.77;;;;;;;;;;5061595;28;20133;-60
2022/02/16 12:41:34;;;;;;;11.10;1.98;;;;;;;;;;5068706;28;20048;-60
2022/02/16 12:44:03;;;;;;;19.77;1.70;;;;;;;;;;5061584;28;20083;-60
2022/02/16 12:46:31;;;;;;;7.00;1.92;;;;;;;;;;5066905;28;20056;-60
2022/02/16 12:48:58;;;;;;;10.38;1.85;;;;;;;;;;5067290;28;20080;-61
2022/02/16 12:51:26;;;;;;;10.88;1.88;;;;;;;;;;5060625;28;20068;-61
2022/02/16 12:53:52;;;;;;;13.37;2.43;;;;;;;;;;5065244;28;20127;-59
2022/02/16 12:56:20;;;;;;;14.18;2.45;;;;;;;;;;5061211;28;20062;-60
2022/02/16 12:58:48;;;;;;;11.55;2.75;;;;;;;;;;5067065;28;20053;-62
2022/02/16 13:01:16;;;;;;;12.30;2.85;;;;;;;;;;5048906;28;20128;-61
2022/02/16 13:03:43;;;;;;;14.65;3.13;;;;;;;;;;5047676;28;20076;-61
2022/02/16 13:06:10;;;;;;;19.15;3.97;;;;;;;;;;5041057;28;20056;-61
2022/02/16 13:08:38;;;;;;;20.33;3.95;;;;;;;;;;5047308;28;20081;-62
2022/02/16 13:11:05;;;;;;;19.83;3.13;;;;;;;;;;5041422;28;20048;-63
2022/02/16 13:13:32;;;;;;;12.05;3.03;;;;;;;;;;5047577;28;20061;-62
2022/02/16 13:16:00;;;;;;;23.67;3.50;;;;;;;;;;5041280;28;20143;-62
2022/02/16 13:18:32;;;;;;;20.67;3.92;;;;;;;;;;5047864;28;20063;-60
2022/02/16 13:21:09;;;;;;;16.08;4.03;;;;;;;;;;5041026;28;20064;-59
2022/02/16 13:23:35;;;;;;;20.08;3.33;;;;;;;;;;5047075;28;20057;-63
2022/02/16 13:26:06;;;;;;;11.18;3.33;;;;;;;;;;5040298;28;20059;-63
2022/02/16 13:28:33;;;;;;;17.83;3.38;;;;;;;;;;5047036;28;20083;-63
2022/02/16 13:31:11;;;;;;;21.27;3.67;;;;;;;;;;5040764;28;20057;-64
2022/02/16 13:33:39;;;;;;;14.50;3.88;;;;;;;;;;5047726;28;20052;-61
2022/02/16 13:36:13;;;;;;;10.40;2.65;;;;;;;;;;5040749;28;20053;-60
2022/02/16 13:38:40;;;;;;;24.05;3.90;;;;;;;;;;5046819;28;20060;-60
2022/02/16 13:41:07;;;;;;;17.63;2.97;;;;;;;;;;5042620;28;20049;-59
2022/02/16 13:43:43;;;;;;;22.02;4.00;;;;;;;;;;5046625;28;20068;-60
2022/02/16 13:46:10;;;;;;;24.80;3.33;;;;;;;;;;5045792;28;20098;-59
2022/02/16 13:48:36;;;;;;;18.48;3.60;;;;;;;;;;5040141;28;20060;-61
2022/02/16 13:51:11;;;;;;;27.35;4.80;;;;;;;;;;5046347;28;20053;-60
2022/02/16 13:53:38;;;;;;;23.48;3.75;;;;;;;;;;5040784;28;20056;-60
2022/02/16 13:56:05;;;;;;;25.27;3.95;;;;;;;;;;5046363;28;20106;-62
2022/02/16 13:58:33;;;;;;;14.85;3.55;;;;;;;;;;5041036;28;20048;-59
2022/02/16 14:01:00;;;;;;;19.63;3.40;;;;;;;;;;5046447;28;20119;-59
2022/02/16 14:03:27;;;;;;;26.85;3.92;;;;;;;;;;5039440;28;20118;-60
2022/02/16 14:05:53;;;;;;;21.98;4.13;;;;;;;;;;5045448;28;20069;-62
2022/02/16 14:08:22;;;;;;;21.05;3.30;;;;;;;;;;5039978;28;20054;-60
2022/02/16 14:10:48;;;;;;;32.33;4.93;;;;;;;;;;5046189;28;20049;-62
2022/02/16 14:13:15;;;;;;;28.77;4.25;;;;;;;;;;5039918;28;20110;-62
2022/02/16 14:15:42;;;;;;;23.73;3.65;;;;;;;;;;5046083;28;20048;-59
2022/02/16 14:18:09;;;;;;;33.47;3.92;;;;;;;;;;5040101;28;20106;-59
2022/02/16 14:20:35;;;;;;;13.25;3.00;;;;;;;;;;5045934;28;20080;-59
2022/02/16 14:23:02;;;;;;;19.48;4.07;;;;;;;;;;5040812;28;20053;-59
2022/02/16 14:25:31;;;;;;;15.43;3.63;;;;;;;;;;5045353;28;20131;-60
2022/02/16 14:27:57;;;;;;;19.23;2.78;;;;;;;;;;5041257;28;20049;-60
2022/02/16 14:30:24;;;;;;;16.80;2.53;;;;;;;;;;5037330;28;20120;-59
2022/02/16 14:32:52;;;;;;;11.40;2.70;;;;;;;;;;5046882;28;20068;-59
2022/02/16 14:35:19;;;;;;;33.53;3.63;;;;;;;;;;5040311;28;20053;-60
2022/02/16 14:37:45;;;;;;;14.20;3.30;;;;;;;;;;5047270;28;20057;-60
2022/02/16 14:40:14;;;;;;;23.42;3.50;;;;;;;;;;5059043;28;20071;-62
2022/02/16 14:42:43;;;;;;;24.27;3.33;;;;;;;;;;5066289;28;20072;-61
2022/02/16 14:45:10;;;;;;;;;;;;;;;;;;5046396;28;20053;-60